Time;durP1;ratioP1;P1;durP2;ratioP2;P2;SDS_P1;SDS_P2;PMS_P1;PMS_P2;Temp;Humidity;BMP_temperature;BMP_pressure;BME280_temperature;BME280_humidity;BME280_pressure;Samples;Min_cycle;Max_cycle;Signal;HPM_P1;HPM_P2
2023/10/23 00:01:39;;;;;;;3.93;2.27;;;9.70;1.00;;;;;;5105745;28;20645;-76
2023/10/23 00:04:05;;;;;;;7.67;2.60;;;9.70;1.00;;;;;;5092311;28;20433;-76
2023/10/23 00:06:31;;;;;;;3.67;2.30;;;10.00;1.00;;;;;;5092471;28;20449;-76
2023/10/23 00:08:57;;;;;;;4.83;2.60;;;9.70;1.00;;;;;;5103797;28;20517;-76
2023/10/23 00:11:27;;;;;;;3.73;2.50;;;9.60;1.00;;;;;;5092070;28;20645;-76
2023/10/23 00:13:53;;;;;;;7.63;2.80;;;9.60;1.00;;;;;;5096704;28;20175;-76
2023/10/23 00:16:19;;;;;;;7.90;2.33;;;9.50;1.00;;;;;;5096622;28;20567;-76
2023/10/23 00:18:45;;;;;;;5.40;3.30;;;9.60;1.00;;;;;;5107020;28;20188;-75
2023/10/23 00:21:12;;;;;;;3.60;2.27;;;9.50;1.00;;;;;;5103688;28;20433;-75
2023/10/23 00:23:37;;;;;;;4.87;3.07;;;9.50;1.00;;;;;;5095192;28;21111;-75
2023/10/23 00:26:04;;;;;;;5.60;3.10;;;9.40;1.00;;;;;;5090784;28;20515;-76
2023/10/23 00:28:30;;;;;;;5.73;2.90;;;9.40;1.00;;;;;;5096596;28;20252;-74
2023/10/23 00:30:57;;;;;;;4.70;2.60;;;9.40;1.00;;;;;;5095095;28;20441;-76
2023/10/23 00:33:23;;;;;;;3.80;2.60;;;9.40;1.00;;;;;;5093891;28;20218;-78
2023/10/23 00:35:48;;;;;;;8.00;2.97;;;9.40;1.00;;;;;;5098189;28;20441;-76
2023/10/23 00:38:14;;;;;;;4.13;2.60;;;9.30;1.00;;;;;;5104322;28;20210;-75
2023/10/23 00:40:39;;;;;;;4.33;2.40;;;9.30;1.00;;;;;;5110070;28;20239;-76
2023/10/23 00:43:22;;;;;;;6.37;3.23;;;9.10;1.00;;;;;;5101737;28;20605;-76
2023/10/23 00:45:53;;;;;;;6.20;3.00;;;9.00;1.00;;;;;;5100679;28;20218;-76
2023/10/23 00:48:21;;;;;;;8.73;3.07;;;9.00;1.00;;;;;;5100239;28;20549;-76
2023/10/23 00:50:48;;;;;;;4.07;2.77;;;9.00;1.00;;;;;;5103855;28;20430;-76
2023/10/23 00:53:14;;;;;;;8.00;2.57;;;9.00;1.00;;;;;;5090616;28;20777;-76
2023/10/23 00:55:40;;;;;;;3.70;2.60;;;9.00;1.00;;;;;;5096478;28;21039;-76
2023/10/23 00:58:06;;;;;;;4.00;2.77;;;8.90;1.00;;;;;;5096907;28;20445;-79
2023/10/23 01:00:33;;;;;;;6.93;2.50;;;8.90;1.00;;;;;;5093677;28;20668;-76
2023/10/23 01:02:59;;;;;;;4.90;2.93;;;8.70;1.00;;;;;;5098940;28;20939;-75
2023/10/23 01:05:25;;;;;;;5.60;2.37;;;8.70;1.00;;;;;;5099576;28;20460;-77
2023/10/23 01:07:50;;;;;;;4.20;2.40;;;8.70;1.00;;;;;;5090521;28;20445;-77
2023/10/23 01:10:16;;;;;;;5.03;2.60;;;;;;;;;;5099755;28;20191;-75
2023/10/23 01:12:42;;;;;;;3.97;2.40;;;8.70;1.00;;;;;;5098984;28;20213;-75
2023/10/23 01:15:08;;;;;;;4.43;2.63;;;8.50;1.00;;;;;;5093407;28;20189;-73
2023/10/23 01:17:33;;;;;;;7.10;2.77;;;8.50;1.00;;;;;;5103692;28;20191;-76
2023/10/23 01:19:59;;;;;;;3.90;2.63;;;8.40;1.00;;;;;;5101541;28;20809;-77
2023/10/23 01:22:24;;;;;;;5.37;2.40;;;8.50;1.00;;;;;;5092355;28;20210;-76
2023/10/23 01:24:51;;;;;;;3.87;2.30;;;8.60;1.00;;;;;;5095284;28;20195;-76
2023/10/23 01:27:17;;;;;;;5.60;2.60;;;8.60;1.00;;;;;;5093048;28;20242;-80
2023/10/23 01:29:42;;;;;;;3.20;2.23;;;8.60;1.00;;;;;;5104269;28;20916;-76
2023/10/23 01:32:10;;;;;;;5.23;2.63;;;8.40;1.00;;;;;;5100658;28;20235;-73
2023/10/23 01:34:35;;;;;;;7.17;2.83;;;8.60;1.00;;;;;;5099680;28;20186;-79
2023/10/23 01:37:01;;;;;;;11.73;2.90;;;8.60;1.00;;;;;;5099972;28;20832;-75
2023/10/23 01:39:26;;;;;;;5.20;2.90;;;8.50;1.00;;;;;;5101455;28;20700;-75
2023/10/23 01:41:52;;;;;;;5.70;3.00;;;8.40;1.00;;;;;;5102166;28;20278;-75
2023/10/23 01:44:17;;;;;;;8.80;2.90;;;8.30;1.00;;;;;;5104750;27;20187;-75
2023/10/23 01:46:43;;;;;;;4.20;2.37;;;8.30;1.00;;;;;;5099035;28;20222;-75
2023/10/23 01:49:08;;;;;;;2.77;2.13;;;8.30;1.00;;;;;;5097451;28;20204;-78
2023/10/23 01:51:34;;;;;;;8.87;2.90;;;8.30;1.00;;;;;;5098926;28;20266;-75
2023/10/23 01:53:59;;;;;;;3.27;2.27;;;8.30;1.00;;;;;;5101399;28;20187;-77
2023/10/23 01:56:25;;;;;;;3.40;2.60;;;8.10;1.00;;;;;;5092304;28;20546;-75
2023/10/23 01:58:51;;;;;;;5.50;2.70;;;8.00;1.00;;;;;;5093653;28;20194;-79
2023/10/23 02:01:21;;;;;;;4.90;2.60;;;8.00;1.00;;;;;;5093592;28;20538;-78
2023/10/23 02:03:47;;;;;;;4.97;2.23;;;8.10;1.00;;;;;;5098319;28;20482;-76
2023/10/23 02:06:12;;;;;;;2.93;2.00;;;8.00;1.00;;;;;;5094158;28;20819;-75
2023/10/23 02:08:38;;;;;;;3.30;2.10;;;8.10;1.00;;;;;;5107348;28;20224;-75
2023/10/23 02:11:03;;;;;;;3.00;2.10;;;8.00;1.00;;;;;;5097813;28;20183;-76
2023/10/23 02:13:29;;;;;;;6.33;2.50;;;8.10;1.00;;;;;;5102883;28;20214;-76
2023/10/23 02:15:54;;;;;;;5.60;2.63;;;8.10;1.00;;;;;;5098116;28;20264;-75
2023/10/23 02:18:20;;;;;;;7.23;2.60;;;8.10;1.00;;;;;;5098622;28;20191;-77
2023/10/23 02:20:45;;;;;;;4.90;2.33;;;8.10;1.00;;;;;;5102731;28;20218;-80
2023/10/23 02:23:11;;;;;;;3.70;2.47;;;8.10;1.00;;;;;;5098319;28;20270;-74
2023/10/23 02:25:36;;;;;;;4.93;2.40;;;8.00;1.00;;;;;;5093310;28;20641;-79
2023/10/23 02:28:03;;;;;;;6.50;2.17;;;8.00;1.00;;;;;;5095950;28;20748;-78
2023/10/23 02:30:28;;;;;;;5.60;3.10;;;7.90;1.00;;;;;;5099393;28;20195;-77
2023/10/23 02:32:54;;;;;;;3.67;2.27;;;7.90;1.00;;;;;;5103953;28;20444;-78
2023/10/23 02:35:20;;;;;;;6.70;2.57;;;7.80;1.00;;;;;;5102102;28;20340;-77
2023/10/23 02:37:45;;;;;;;7.43;2.40;;;7.80;1.00;;;;;;5106641;28;20183;-77
2023/10/23 02:40:11;;;;;;;4.97;2.37;;;7.70;1.00;;;;;;5103291;28;20258;-76
2023/10/23 02:42:37;;;;;;;2.77;2.40;;;7.60;1.00;;;;;;5101921;28;20175;-74
2023/10/23 02:45:03;;;;;;;3.87;2.67;;;7.50;1.00;;;;;;5103109;28;20444;-77
2023/10/23 02:47:28;;;;;;;4.20;2.40;;;7.50;1.00;;;;;;5104382;28;20175;-78
2023/10/23 02:49:54;;;;;;;3.93;2.70;;;7.40;1.00;;;;;;5094040;28;20468;-77
2023/10/23 02:52:20;;;;;;;7.60;2.33;;;7.40;1.00;;;;;;5100955;28;20179;-78
2023/10/23 02:54:46;;;;;;;3.30;2.20;;;;;;;;;;5091504;28;20179;-79
2023/10/23 02:57:12;;;;;;;4.20;2.40;;;7.50;1.00;;;;;;5092737;28;21026;-79
2023/10/23 02:59:37;;;;;;;4.80;2.33;;;7.50;1.00;;;;;;5108348;28;20456;-79
2023/10/23 03:02:03;;;;;;;6.73;2.23;;;7.50;1.00;;;;;;5107318;28;20611;-78
2023/10/23 03:04:28;;;;;;;3.57;1.73;;;7.50;1.00;;;;;;5096629;28;20179;-82
2023/10/23 03:06:54;;;;;;;11.27;2.63;;;7.50;1.00;;;;;;5096696;28;20199;-78
2023/10/23 03:09:19;;;;;;;5.30;2.40;;;7.50;1.00;;;;;;5107248;28;20207;-83
2023/10/23 03:11:45;;;;;;;5.07;2.40;;;7.50;1.00;;;;;;5105698;28;20178;-78
2023/10/23 03:14:10;;;;;;;4.07;2.20;;;7.40;1.00;;;;;;5107831;28;20180;-79
2023/10/23 03:16:36;;;;;;;6.40;2.50;;;7.30;1.00;;;;;;5101131;28;20203;-82
2023/10/23 03:19:02;;;;;;;5.87;3.30;;;7.40;1.00;;;;;;5104412;27;20279;-78
2023/10/23 03:21:27;;;;;;;8.17;2.97;;;7.40;1.00;;;;;;5101054;28;20190;-80
2023/10/23 03:23:53;;;;;;;5.77;2.60;;;7.40;1.00;;;;;;5099670;28;20556;-79
2023/10/23 03:26:18;;;;;;;3.10;2.00;;;7.40;1.00;;;;;;5092466;28;20211;-76
2023/10/23 03:28:44;;;;;;;4.40;2.43;;;7.40;1.00;;;;;;5102667;28;20203;-78
2023/10/23 03:31:09;;;;;;;4.60;2.30;;;7.40;1.00;;;;;;5106017;28;20199;-78
2023/10/23 03:33:35;;;;;;;4.40;2.60;;;7.40;1.00;;;;;;5099824;28;20176;-81
2023/10/23 03:36:00;;;;;;;6.90;2.63;;;7.40;1.00;;;;;;5109069;28;20634;-79
2023/10/23 03:38:26;;;;;;;3.63;2.23;;;7.40;1.00;;;;;;5109013;28;20194;-78
2023/10/23 03:40:58;;;;;;;5.53;2.10;;;7.40;1.00;;;;;;5107187;28;20307;-78
2023/10/23 03:43:24;;;;;;;3.00;2.37;;;7.30;1.00;;;;;;5096534;28;20188;-78
2023/10/23 03:45:49;;;;;;;3.03;2.30;;;7.30;1.00;;;;;;5109939;28;20467;-78
2023/10/23 03:48:15;;;;;;;3.60;2.27;;;7.30;1.00;;;;;;5101343;28;20242;-81
2023/10/23 03:50:40;;;;;;;4.87;2.13;;;7.30;1.00;;;;;;5108682;28;20609;-77
2023/10/23 03:53:06;;;;;;;4.17;2.50;;;7.40;1.00;;;;;;5103454;28;20191;-79
2023/10/23 03:55:36;;;;;;;4.03;2.20;;;7.40;1.00;;;;;;5099437;28;20287;-77
2023/10/23 03:58:02;;;;;;;3.90;2.03;;;;;;;;;;5101288;28;20183;-80
2023/10/23 04:00:29;;;;;;;3.20;2.23;;;7.30;1.00;;;;;;5098008;28;20442;-80
2023/10/23 04:02:55;;;;;;;2.73;2.03;;;7.30;1.00;;;;;;5101849;28;20172;-78
2023/10/23 04:05:20;;;;;;;3.90;2.13;;;7.40;1.00;;;;;;5096556;28;20425;-81
2023/10/23 04:07:46;;;;;;;2.93;2.00;;;7.40;1.00;;;;;;5092442;28;20598;-78
2023/10/23 04:10:13;;;;;;;5.53;2.27;;;7.40;1.00;;;;;;5099393;28;20176;-79
2023/10/23 04:12:39;;;;;;;4.23;2.90;;;7.40;1.00;;;;;;5096419;28;20171;-78
2023/10/23 04:15:06;;;;;;;2.60;2.03;;;7.30;1.00;;;;;;5108713;28;20923;-79
2023/10/23 04:17:31;;;;;;;6.93;2.90;;;7.30;1.00;;;;;;5100544;28;20172;-78
2023/10/23 04:19:57;;;;;;;2.97;2.07;;;7.30;1.00;;;;;;5106660;28;20443;-78
2023/10/23 04:22:22;;;;;;;3.70;2.57;;;7.20;1.00;;;;;;5094531;28;21173;-80
2023/10/23 04:24:48;;;;;;;7.30;2.20;;;7.20;1.00;;;;;;5096670;28;20207;-75
2023/10/23 04:27:14;;;;;;;3.30;2.33;;;7.20;1.00;;;;;;5098024;28;20214;-76
2023/10/23 04:29:40;;;;;;;5.47;2.73;;;7.10;1.00;;;;;;5106903;28;20641;-76
2023/10/23 04:32:05;;;;;;;5.30;2.43;;;7.10;1.00;;;;;;5102424;28;20599;-75
2023/10/23 04:34:31;;;;;;;4.90;2.43;;;7.20;1.00;;;;;;5099921;28;20545;-76
2023/10/23 04:36:56;;;;;;;5.60;3.07;;;7.10;1.00;;;;;;5102744;28;20199;-76
2023/10/23 04:39:22;;;;;;;9.73;3.40;;;7.10;1.00;;;;;;5101288;28;20219;-78
2023/10/23 04:41:47;;;;;;;6.43;3.03;;;7.20;1.00;;;;;;5093172;28;20751;-75
2023/10/23 04:44:13;;;;;;;6.93;3.00;;;7.10;1.00;;;;;;5108907;28;20187;-74
2023/10/23 04:46:38;;;;;;;8.00;2.60;;;7.20;1.00;;;;;;5104179;28;20202;-77
2023/10/23 04:49:04;;;;;;;4.67;3.37;;;7.10;1.00;;;;;;5095009;28;20716;-75
2023/10/23 04:51:29;;;;;;;5.87;2.70;;;7.10;1.00;;;;;;5104116;28;20179;-75
2023/10/23 04:53:55;;;;;;;4.40;2.10;;;7.10;1.00;;;;;;5108412;28;20194;-77
2023/10/23 04:56:20;;;;;;;3.60;2.37;;;7.00;1.00;;;;;;5099784;28;20231;-75
2023/10/23 04:58:46;;;;;;;5.20;2.33;;;7.00;1.00;;;;;;5095141;28;20205;-75
2023/10/23 05:01:16;;;;;;;3.33;2.50;;;7.00;1.00;;;;;;5102175;28;20257;-77
2023/10/23 05:03:41;;;;;;;3.50;2.37;;;6.90;1.00;;;;;;5105662;28;20216;-75
2023/10/23 05:06:07;;;;;;;4.30;2.53;;;6.80;1.00;;;;;;5108118;28;20492;-73
2023/10/23 05:08:32;;;;;;;2.90;2.10;;;7.70;1.00;;;;;;5098822;28;20356;-76
2023/10/23 05:11:05;;;;;;;8.13;2.70;;;6.80;1.00;;;;;;5099005;28;20183;-76
2023/10/23 05:13:31;;;;;;;9.50;2.33;;;6.80;1.00;;;;;;5101427;28;20299;-77
2023/10/23 05:16:06;;;;;;;6.30;2.00;;;6.80;1.00;;;;;;5106564;28;20598;-74
2023/10/23 05:18:32;;;;;;;5.10;2.30;;;6.80;1.00;;;;;;5094656;28;20183;-78
2023/10/23 05:20:58;;;;;;;4.17;3.30;;;6.80;1.00;;;;;;5104054;28;20989;-77
2023/10/23 05:23:24;;;;;;;6.07;2.63;;;6.80;1.00;;;;;;5101432;28;20436;-74
2023/10/23 05:25:50;;;;;;;3.83;1.97;;;;;;;;;;5087906;28;20257;-75
2023/10/23 05:28:15;;;;;;;4.97;2.47;;;6.80;1.00;;;;;;5097210;28;20206;-74
2023/10/23 05:30:40;;;;;;;5.00;2.80;;;6.90;1.00;;;;;;5102876;28;20199;-75
2023/10/23 05:33:06;;;;;;;5.27;3.33;;;6.90;1.00;;;;;;5099165;28;20180;-75
2023/10/23 05:35:32;;;;;;;10.07;2.70;;;6.80;1.00;;;;;;5097735;28;20590;-76
2023/10/23 05:37:57;;;;;;;7.93;2.40;;;6.80;1.00;;;;;;5090701;28;20213;-74
2023/10/23 05:40:23;;;;;;;2.73;1.90;;;6.80;1.00;;;;;;5094863;28;20257;-75
2023/10/23 05:42:48;;;;;;;4.40;2.40;;;6.90;1.00;;;;;;5090207;28;20758;-75
2023/10/23 05:45:14;;;;;;;8.60;2.43;;;6.70;1.00;;;;;;5090132;28;20270;-75
2023/10/23 05:47:39;;;;;;;4.97;2.63;;;6.70;1.00;;;;;;5089838;28;20170;-79
2023/10/23 05:50:05;;;;;;;5.80;3.07;;;6.70;1.00;;;;;;5098015;28;20235;-75
2023/10/23 05:52:30;;;;;;;5.00;2.90;;;6.80;1.00;;;;;;5093990;28;20188;-75
2023/10/23 05:54:56;;;;;;;7.00;3.40;;;6.80;1.00;;;;;;5096567;28;20213;-75
2023/10/23 05:57:21;;;;;;;12.07;3.13;;;6.80;1.00;;;;;;5092931;28;20217;-77
2023/10/23 05:59:47;;;;;;;3.23;2.10;;;6.90;1.00;;;;;;5089984;28;20582;-75
2023/10/23 06:02:12;;;;;;;4.57;2.37;;;6.80;1.00;;;;;;5098587;28;20187;-75
2023/10/23 06:04:41;;;;;;;4.83;2.30;;;6.80;1.00;;;;;;5092037;28;20581;-77
2023/10/23 06:07:07;;;;;;;4.60;3.03;;;6.90;1.00;;;;;;5089796;28;20290;-76
2023/10/23 06:09:32;;;;;;;5.23;2.50;;;6.80;1.00;;;;;;5093623;28;20591;-78
2023/10/23 06:11:58;;;;;;;4.90;2.80;;;6.80;1.00;;;;;;5095594;28;20203;-76
2023/10/23 06:14:24;;;;;;;8.03;3.73;;;6.70;1.00;;;;;;5097623;28;20542;-75
2023/10/23 06:16:49;;;;;;;5.90;2.40;;;6.70;1.00;;;;;;5093707;28;20215;-75
2023/10/23 06:19:15;;;;;;;4.97;2.40;;;6.70;1.00;;;;;;5090279;28;20453;-77
2023/10/23 06:21:40;;;;;;;7.80;2.93;;;6.80;1.00;;;;;;5100827;28;20186;-75
2023/10/23 06:24:06;;;;;;;5.10;2.60;;;6.80;1.00;;;;;;5100817;28;20183;-75
2023/10/23 06:26:31;;;;;;;4.40;2.30;;;7.10;1.00;;;;;;5100864;28;20203;-78
2023/10/23 06:28:57;;;;;;;4.00;2.63;;;6.90;1.00;;;;;;5092815;28;20306;-75
2023/10/23 06:31:23;;;;;;;2.87;2.43;;;6.90;1.00;;;;;;5095701;28;20180;-76
2023/10/23 06:33:51;;;;;;;4.97;2.40;;;7.00;1.00;;;;;;5089389;28;20421;-76
2023/10/23 06:36:16;;;;;;;3.17;2.47;;;7.10;1.00;;;;;;5097191;28;20691;-76
2023/10/23 06:38:41;;;;;;;5.10;2.90;;;7.10;1.00;;;;;;5097237;28;20424;-78
2023/10/23 06:41:08;;;;;;;7.83;2.60;;;7.10;1.00;;;;;;5093603;28;20187;-75
2023/10/23 06:43:34;;;;;;;3.53;2.23;;;7.10;1.00;;;;;;5102458;28;20206;-75
2023/10/23 06:46:00;;;;;;;3.93;2.50;;;;;;;;;;5090313;28;20518;-79
2023/10/23 06:48:26;;;;;;;6.90;2.97;;;7.40;1.00;;;;;;5093351;28;20465;-75
2023/10/23 06:50:51;;;;;;;7.87;5.43;;;7.50;1.00;;;;;;5095726;28;20933;-75
2023/10/23 06:53:17;;;;;;;10.67;3.47;;;7.60;1.00;;;;;;5093057;28;20184;-76
2023/10/23 06:55:54;;;;;;;6.27;3.53;;;7.60;1.00;;;;;;5093288;28;20640;-77
2023/10/23 06:58:21;;;;;;;5.17;2.87;;;7.80;1.00;;;;;;5103485;28;20212;-75
2023/10/23 07:00:47;;;;;;;5.47;2.70;;;8.10;1.00;;;;;;5092407;28;20445;-75
2023/10/23 07:03:13;;;;;;;3.30;2.47;;;8.30;1.00;;;;;;5098231;28;20455;-81
2023/10/23 07:05:40;;;;;;;5.03;3.13;;;8.30;1.00;;;;;;5094761;28;20543;-77
2023/10/23 07:08:05;;;;;;;3.73;2.63;;;8.50;1.00;;;;;;5100049;28;20183;-76
2023/10/23 07:10:35;;;;;;;3.90;2.65;;;8.70;1.00;;;;;;5106525;28;20497;-75
2023/10/23 07:13:02;;;;;;;4.57;2.50;;;8.90;1.00;;;;;;5096601;28;20786;-75
2023/10/23 07:15:27;;;;;;;5.80;2.90;;;9.10;1.00;;;;;;5101109;28;20456;-76
2023/10/23 07:17:53;;;;;;;7.33;2.73;;;9.20;1.00;;;;;;5100561;28;20437;-79
2023/10/23 07:20:19;;;;;;;5.27;2.50;;;10.00;1.00;;;;;;5093909;28;20830;-79
2023/10/23 07:22:44;;;;;;;6.00;3.00;;;9.60;1.00;;;;;;5089490;28;20184;-78
2023/10/23 07:25:13;;;;;;;6.80;2.53;;;9.80;1.00;;;;;;5092724;28;20199;-77
2023/10/23 07:27:39;;;;;;;4.73;2.60;;;9.80;1.00;;;;;;5095480;28;20653;-76
2023/10/23 07:30:06;;;;;;;7.33;2.77;;;10.00;1.00;;;;;;5092778;28;20453;-78
2023/10/23 07:32:31;;;;;;;3.80;2.57;;;10.10;1.00;;;;;;5096329;28;20202;-77
2023/10/23 07:34:57;;;;;;;7.37;3.37;;;10.20;1.00;;;;;;5101281;28;20942;-76
2023/10/23 07:37:22;;;;;;;5.53;3.00;;;10.30;1.00;;;;;;5105074;28;20542;-77
2023/10/23 07:39:48;;;;;;;6.03;2.90;;;10.30;1.00;;;;;;5101377;28;20273;-78
2023/10/23 07:42:15;;;;;;;5.60;3.23;;;10.40;1.00;;;;;;5095701;28;20183;-75
2023/10/23 07:44:41;;;;;;;5.60;3.30;;;10.60;1.00;;;;;;5098440;28;20465;-76
2023/10/23 07:47:07;;;;;;;6.70;3.10;;;10.60;1.00;;;;;;5093529;28;20456;-75
2023/10/23 07:49:33;;;;;;;6.50;3.33;;;10.70;1.00;;;;;;5096895;28;20461;-77
2023/10/23 07:51:58;;;;;;;7.27;2.73;;;11.00;1.00;;;;;;5093781;28;20172;-75
2023/10/23 07:54:24;;;;;;;9.77;3.47;;;11.00;1.00;;;;;;5099460;28;20190;-75
2023/10/23 07:56:49;;;;;;;8.17;3.63;;;11.10;1.00;;;;;;5095976;28;20208;-75
2023/10/23 07:59:16;;;;;;;6.80;3.57;;;11.10;1.00;;;;;;5101406;28;20180;-77
2023/10/23 08:01:42;;;;;;;8.97;4.17;;;10.90;1.00;;;;;;5104915;28;20211;-75
2023/10/23 08:04:08;;;;;;;7.00;3.80;;;11.20;1.00;;;;;;5092667;28;20467;-76
2023/10/23 08:06:34;;;;;;;7.10;3.33;;;11.30;1.00;;;;;;5099855;28;20399;-76
2023/10/23 08:08:59;;;;;;;10.50;4.60;;;11.30;1.00;;;;;;5098500;28;20524;-79
2023/10/23 08:11:25;;;;;;;14.40;4.80;;;11.40;1.00;;;;;;5092642;28;20258;-76
2023/10/23 08:13:50;;;;;;;7.73;4.10;;;11.40;1.00;;;;;;5104477;28;20187;-76
2023/10/23 08:16:16;;;;;;;9.00;4.70;;;11.50;1.00;;;;;;5102148;28;20264;-76
2023/10/23 08:18:41;;;;;;;6.23;4.23;;;11.60;1.00;;;;;;5102324;28;20191;-73
2023/10/23 08:21:15;;;;;;;6.87;3.73;;;11.70;1.00;;;;;;5099945;28;20602;-74
2023/10/23 08:23:42;;;;;;;6.57;3.33;;;11.80;1.00;;;;;;5090918;28;20180;-75
2023/10/23 08:26:08;;;;;;;7.30;3.53;;;12.40;1.00;;;;;;5095543;28;20449;-74
2023/10/23 08:28:34;;;;;;;5.27;3.40;;;12.40;1.00;;;;;;5094196;28;20529;-72
2023/10/23 08:30:59;;;;;;;7.43;3.70;;;12.60;1.00;;;;;;5094732;28;20644;-74
2023/10/23 08:33:25;;;;;;;6.20;3.57;;;12.80;1.00;;;;;;5108677;28;20433;-74
2023/10/23 08:35:50;;;;;;;5.83;3.57;;;12.80;1.00;;;;;;5104618;27;20323;-76
2023/10/23 08:38:16;;;;;;;9.70;4.03;;;13.00;1.00;;;;;;5096846;28;20183;-73
2023/10/23 08:40:41;;;;;;;7.80;3.73;;;13.00;1.00;;;;;;5102020;28;20214;-73
2023/10/23 08:43:08;;;;;;;7.10;3.77;;;13.00;1.00;;;;;;5098071;28;20184;-76
2023/10/23 08:45:34;;;;;;;6.97;3.47;;;12.90;1.00;;;;;;5097614;28;20203;-76
2023/10/23 08:47:59;;;;;;;11.17;3.83;;;12.70;1.00;;;;;;5091950;28;20543;-77
2023/10/23 08:50:25;;;;;;;5.67;3.20;;;12.50;1.00;;;;;;5094648;28;20577;-75
2023/10/23 08:52:59;;;;;;;7.20;3.93;;;12.50;1.00;;;;;;5099592;28;20269;-75
2023/10/23 08:55:30;;;;;;;15.53;4.30;;;12.60;1.00;;;;;;5101176;28;20877;-74
2023/10/23 08:57:58;;;;;;;6.77;4.10;;;12.70;1.00;;;;;;5098614;28;20949;-76
2023/10/23 09:00:24;;;;;;;14.90;4.27;;;12.80;1.00;;;;;;5098267;28;20442;-76
2023/10/23 09:02:51;;;;;;;9.10;4.33;;;13.00;1.00;;;;;;5101118;28;20438;-73
2023/10/23 09:05:16;;;;;;;7.73;5.30;;;13.10;1.00;;;;;;5101579;28;20178;-75
2023/10/23 09:07:42;;;;;;;8.13;4.80;;;13.20;1.00;;;;;;5088917;28;20532;-75
2023/10/23 09:10:08;;;;;;;10.10;5.50;;;13.20;1.00;;;;;;5101019;28;20199;-77
2023/10/23 09:12:36;;;;;;;6.97;4.17;;;13.60;1.00;;;;;;5103336;28;21026;-77
2023/10/23 09:15:20;;;;;;;13.97;4.73;;;14.00;1.00;;;;;;5100915;28;20711;-77
2023/10/23 09:17:47;;;;;;;12.43;4.77;;;14.30;1.00;;;;;;5096756;28;20445;-76
2023/10/23 09:20:19;;;;;;;7.20;4.37;;;14.40;1.00;;;;;;5101869;28;20429;-77
2023/10/23 09:22:49;;;;;;;8.73;4.90;;;14.60;1.00;;;;;;5098494;28;20457;-77
2023/10/23 09:25:19;;;;;;;9.67;5.30;;;14.70;1.00;;;;;;5101847;28;20459;-78
2023/10/23 09:27:45;;;;;;;8.17;4.20;;;14.70;1.00;;;;;;5091322;28;20524;-76
2023/10/23 09:30:13;;;;;;;13.57;5.60;;;14.70;1.00;;;;;;5097048;28;20539;-75
2023/10/23 09:32:39;;;;;;;11.80;5.23;;;14.70;1.00;;;;;;5096946;28;20715;-75
2023/10/23 09:35:05;;;;;;;11.73;5.50;;;14.50;1.00;;;;;;5104926;28;20440;-75
2023/10/23 09:37:31;;;;;;;9.00;4.70;;;14.50;1.00;;;;;;5098358;28;20237;-77
2023/10/23 09:40:11;;;;;;;9.17;5.10;;;14.50;1.00;;;;;;5099753;28;20413;-77
2023/10/23 09:42:36;;;;;;;7.07;4.37;;;14.50;1.00;;;;;;5101190;28;20210;-75
2023/10/23 09:45:04;;;;;;;7.70;4.93;;;14.60;1.00;;;;;;5090970;28;20465;-75
2023/10/23 09:47:30;;;;;;;12.50;4.70;;;14.70;1.00;;;;;;5098844;28;20258;-76
2023/10/23 09:49:56;;;;;;;13.73;5.07;;;14.80;1.00;;;;;;5096289;28;20830;-77
2023/10/23 09:52:26;;;;;;;10.43;5.07;;;14.70;1.00;;;;;;5100022;28;20437;-75
2023/10/23 09:55:05;;;;;;;11.10;4.37;;;14.70;1.00;;;;;;5103746;28;20184;-76
2023/10/23 09:57:39;;;;;;;7.60;4.80;;;14.80;1.00;;;;;;5098543;28;20467;-78
2023/10/23 10:00:16;;;;;;;11.33;4.93;;;14.80;1.00;;;;;;5092075;28;20432;-78
2023/10/23 10:02:52;;;;;;;9.93;4.23;;;14.80;1.00;;;;;;5093583;28;20437;-76
2023/10/23 10:05:53;;;;;;;8.30;4.60;;;14.90;1.00;;;;;;5093967;28;20464;-77
2023/10/23 10:08:21;;;;;;;12.80;4.70;;;15.00;1.00;;;;;;5101278;28;20866;-78
2023/10/23 10:10:48;;;;;;;8.30;4.13;;;15.00;1.00;;;;;;5097656;28;20460;-77
2023/10/23 10:13:15;;;;;;;15.17;4.73;;;15.10;1.00;;;;;;5100386;28;20441;-77
2023/10/23 10:15:43;;;;;;;6.20;3.90;;;15.20;1.00;;;;;;5101897;28;20532;-75
2023/10/23 10:18:10;;;;;;;11.23;4.27;;;15.20;1.00;;;;;;5094607;28;20429;-76
2023/10/23 10:20:37;;;;;;;5.53;3.90;;;15.30;1.00;;;;;;5097058;28;20437;-79
2023/10/23 10:23:15;;;;;;;6.10;3.77;;;15.40;1.00;;;;;;5094951;28;20938;-76
2023/10/23 10:25:46;;;;;;;6.83;4.10;;;15.30;1.00;;;;;;5097679;28;20478;-77
2023/10/23 10:28:13;;;;;;;8.87;4.80;;;15.40;1.00;;;;;;5092382;28;20963;-77
2023/10/23 10:30:49;;;;;;;8.30;5.17;;;15.30;1.00;;;;;;5092042;28;20441;-78
2023/10/23 10:33:16;;;;;;;11.50;3.80;;;15.40;1.00;;;;;;5100059;28;20436;-76
2023/10/23 10:35:49;;;;;;;16.50;6.97;;;15.50;1.00;;;;;;5095947;28;20457;-76
2023/10/23 10:38:19;;;;;;;9.67;5.53;;;15.60;1.00;;;;;;5099072;28;20894;-76
2023/10/23 10:40:59;;;;;;;11.07;4.03;;;15.70;1.00;;;;;;5102048;28;20820;-77
2023/10/23 10:43:29;;;;;;;6.97;4.10;;;15.70;1.00;;;;;;5102183;28;20962;-76
2023/10/23 10:45:55;;;;;;;15.43;4.17;;;15.80;1.00;;;;;;5100998;28;20531;-78
2023/10/23 10:48:23;;;;;;;6.97;3.70;;;15.90;1.00;;;;;;5095318;28;20466;-78
2023/10/23 10:50:48;;;;;;;5.63;3.53;;;15.80;1.00;;;;;;5096409;28;20502;-77
2023/10/23 10:53:14;;;;;;;8.50;3.30;;;15.70;1.00;;;;;;5094242;28;20762;-76
2023/10/23 10:55:43;;;;;;;11.50;3.07;;;15.70;1.00;;;;;;5092819;28;20705;-79
2023/10/23 10:58:10;;;;;;;8.30;3.33;;;15.80;1.00;;;;;;5097140;28;20425;-80
2023/10/23 11:00:37;;;;;;;9.47;3.80;;;15.80;1.00;;;;;;5101684;28;20441;-79
2023/10/23 11:03:03;;;;;;;10.80;3.77;;;15.80;1.00;;;;;;5102541;28;20572;-77
2023/10/23 11:05:29;;;;;;;6.37;3.13;;;15.80;1.00;;;;;;5099219;28;20533;-78
2023/10/23 11:07:55;;;;;;;25.10;13.40;;;15.70;1.00;;;;;;5096777;28;20963;-76
2023/10/23 11:10:21;;;;;;;84.60;51.07;;;15.90;1.00;;;;;;5095732;28;22063;-77
2023/10/23 11:12:47;;;;;;;19.37;12.53;;;16.00;1.00;;;;;;5102442;28;20191;-77
2023/10/23 11:15:13;;;;;;;11.13;4.97;;;16.00;1.00;;;;;;5096910;28;20176;-79
2023/10/23 11:17:41;;;;;;;6.83;3.33;;;16.00;1.00;;;;;;5096422;28;20894;-77
2023/10/23 11:20:10;;;;;;;9.27;4.00;;;16.00;1.00;;;;;;5099980;28;20552;-77
2023/10/23 11:22:47;;;;;;;7.50;3.43;;;16.00;1.00;;;;;;5099272;28;20479;-78
2023/10/23 11:25:14;;;;;;;3.93;2.90;;;16.10;1.00;;;;;;5101784;28;20436;-76
2023/10/23 11:27:40;;;;;;;7.93;3.33;;;16.10;1.00;;;;;;5101041;28;20473;-76
2023/10/23 11:30:07;;;;;;;6.10;3.30;;;16.20;1.00;;;;;;5100216;28;20492;-76
2023/10/23 11:32:32;;;;;;;4.07;2.77;;;16.20;1.00;;;;;;5105398;28;20187;-78
2023/10/23 11:35:05;;;;;;;8.60;4.13;;;16.10;1.00;;;;;;5102061;28;20804;-77
2023/10/23 11:37:33;;;;;;;6.53;3.47;;;16.10;1.00;;;;;;5103717;28;20179;-79
2023/10/23 11:40:05;;;;;;;9.50;3.20;;;16.00;1.00;;;;;;5100129;28;20438;-79
2023/10/23 11:42:32;;;;;;;5.80;2.80;;;15.90;1.00;;;;;;5100738;28;20930;-78
2023/10/23 11:44:57;;;;;;;4.93;2.53;;;15.80;1.00;;;;;;5103215;27;20441;-77
2023/10/23 11:47:23;;;;;;;9.57;3.80;;;15.80;1.00;;;;;;5097897;28;20475;-77
2023/10/23 11:49:49;;;;;;;8.77;3.70;;;15.80;1.00;;;;;;5093009;28;20230;-78
2023/10/23 11:52:15;;;;;;;8.27;3.90;;;15.90;1.00;;;;;;5102069;28;20609;-77
2023/10/23 11:54:40;;;;;;;7.73;4.50;;;16.00;1.00;;;;;;5106126;28;20473;-75
2023/10/23 11:57:06;;;;;;;11.50;4.30;;;16.10;1.00;;;;;;5100804;28;20207;-78
2023/10/23 11:59:31;;;;;;;5.97;3.90;;;16.00;1.00;;;;;;5099233;28;20187;-76
2023/10/23 12:01:58;;;;;;;7.67;4.03;;;15.90;1.00;;;;;;5101769;28;20215;-77
2023/10/23 12:04:23;;;;;;;8.80;4.60;;;16.00;1.00;;;;;;5098108;28;20184;-76
2023/10/23 12:06:49;;;;;;;5.87;3.87;;;16.10;1.00;;;;;;5099179;28;20453;-77
2023/10/23 12:09:15;;;;;;;8.20;4.70;;;16.10;1.00;;;;;;5102731;28;20215;-78
2023/10/23 12:11:40;;;;;;;6.87;4.33;;;16.00;1.00;;;;;;5094905;28;20247;-78
2023/10/23 12:14:06;;;;;;;7.03;3.50;;;16.10;1.00;;;;;;5094730;28;20187;-77
2023/10/23 12:16:32;;;;;;;10.70;4.50;;;16.20;1.00;;;;;;5099812;28;20202;-77
2023/10/23 12:18:58;;;;;;;13.73;4.87;;;16.40;1.00;;;;;;5095502;28;20599;-77
2023/10/23 12:21:24;;;;;;;6.87;4.13;;;16.80;1.00;;;;;;5099298;28;20467;-74
2023/10/23 12:23:51;;;;;;;10.47;4.27;;;17.00;1.00;;;;;;5099888;28;20555;-75
2023/10/23 12:26:18;;;;;;;10.37;4.30;;;17.20;1.00;;;;;;5101520;28;20456;-74
2023/10/23 12:28:43;;;;;;;5.20;3.10;;;17.40;1.00;;;;;;5103284;28;20872;-75
2023/10/23 12:31:09;;;;;;;3.73;2.30;;;17.60;1.00;;;;;;5100838;28;20460;-77
2023/10/23 12:33:34;;;;;;;3.50;2.07;;;17.70;1.00;;;;;;5094892;28;20243;-75
2023/10/23 12:36:00;;;;;;;4.90;2.13;;;17.70;1.00;;;;;;5098829;28;20200;-77
2023/10/23 12:38:27;;;;;;;3.70;2.30;;;17.50;1.00;;;;;;5102080;28;20230;-76
2023/10/23 12:40:52;;;;;;;3.20;1.80;;;17.50;1.00;;;;;;5092548;28;20191;-77
2023/10/23 12:43:18;;;;;;;7.50;2.00;;;17.60;1.00;;;;;;5102298;28;20480;-75
2023/10/23 12:45:44;;;;;;;4.60;1.80;;;18.10;1.00;;;;;;5110120;28;20495;-77
2023/10/23 12:48:10;;;;;;;4.43;2.00;;;17.30;1.00;;;;;;5092673;28;20194;-76
2023/10/23 12:50:36;;;;;;;3.53;1.90;;;17.30;1.00;;;;;;5098752;28;20184;-76
2023/10/23 12:53:03;;;;;;;3.80;1.80;;;17.40;1.00;;;;;;5100915;28;20851;-76
2023/10/23 12:55:28;;;;;;;5.63;2.13;;;17.40;1.00;;;;;;5100795;28;20545;-77
2023/10/23 12:57:54;;;;;;;5.93;2.00;;;17.40;1.00;;;;;;5103261;28;20843;-75
2023/10/23 13:00:19;;;;;;;4.30;1.73;;;17.40;1.00;;;;;;5104048;28;20183;-76